sensor_id;sensor_type;location;lat;lon;timestamp;P1;durP1;ratioP1;P2;durP2;ratioP2
61308;SDS011;47188;55.644;37.772;2022-10-31T00:00:44;0.35;;;0.10;;
61308;SDS011;47188;55.644;37.772;2022-10-31T00:03:11;0.25;;;0.10;;
61308;SDS011;47188;55.644;37.772;2022-10-31T00:05:39;0.60;;;0.10;;
61308;SDS011;47188;55.644;37.772;2022-10-31T00:08:06;0.52;;;0.10;;
61308;SDS011;47188;55.644;37.772;2022-10-31T00:10:32;0.40;;;0.10;;
61308;SDS011;47188;55.644;37.772;2022-10-31T00:12:57;1.30;;;0.20;;
61308;SDS011;47188;55.644;37.772;2022-10-31T00:15:23;0.30;;;0.20;;
61308;SDS011;47188;55.644;37.772;2022-10-31T00:17:49;0.22;;;0.10;;
61308;SDS011;47188;55.644;37.772;2022-10-31T00:20:15;1.38;;;0.00;;
61308;SDS011;47188;55.644;37.772;2022-10-31T00:22:40;1.45;;;0.30;;
61308;SDS011;47188;55.644;37.772;2022-10-31T00:25:06;0.82;;;0.25;;
61308;SDS011;47188;55.644;37.772;2022-10-31T00:27:32;1.52;;;0.22;;
61308;SDS011;47188;55.644;37.772;2022-10-31T00:29:58;0.20;;;0.05;;
61308;SDS011;47188;55.644;37.772;2022-10-31T00:32:24;0.43;;;0.13;;
61308;SDS011;47188;55.644;37.772;2022-10-31T00:34:50;0.65;;;0.25;;
61308;SDS011;47188;55.644;37.772;2022-10-31T00:37:16;1.17;;;0.20;;
61308;SDS011;47188;55.644;37.772;2022-10-31T00:39:43;0.30;;;0.10;;
61308;SDS011;47188;55.644;37.772;2022-10-31T00:42:10;0.20;;;0.10;;
61308;SDS011;47188;55.644;37.772;2022-10-31T00:44:36;0.60;;;0.10;;
61308;SDS011;47188;55.644;37.772;2022-10-31T00:47:02;1.40;;;0.20;;
61308;SDS011;47188;55.644;37.772;2022-10-31T00:49:27;1.88;;;0.10;;
61308;SDS011;47188;55.644;37.772;2022-10-31T00:51:54;0.05;;;0.05;;
61308;SDS011;47188;55.644;37.772;2022-10-31T00:54:20;1.02;;;0.20;;
61308;SDS011;47188;55.644;37.772;2022-10-31T00:56:46;0.57;;;0.13;;
61308;SDS011;47188;55.644;37.772;2022-10-31T00:59:12;2.15;;;0.30;;
61308;SDS011;47188;55.644;37.772;2022-10-31T01:01:38;2.50;;;0.40;;
61308;SDS011;47188;55.644;37.772;2022-10-31T01:04:04;0.22;;;0.10;;
61308;SDS011;47188;55.644;37.772;2022-10-31T01:06:32;0.45;;;0.10;;
61308;SDS011;47188;55.644;37.772;2022-10-31T01:08:58;1.55;;;0.20;;
61308;SDS011;47188;55.644;37.772;2022-10-31T01:11:24;0.20;;;0.10;;
61308;SDS011;47188;55.644;37.772;2022-10-31T01:13:51;0.38;;;0.20;;
61308;SDS011;47188;55.644;37.772;2022-10-31T01:16:18;0.60;;;0.10;;
61308;SDS011;47188;55.644;37.772;2022-10-31T01:18:45;0.68;;;0.17;;
61308;SDS011;47188;55.644;37.772;2022-10-31T01:21:12;0.38;;;0.17;;
61308;SDS011;47188;55.644;37.772;2022-10-31T01:23:47;0.10;;;0.08;;
61308;SDS011;47188;55.644;37.772;2022-10-31T01:26:15;1.42;;;0.10;;
61308;SDS011;47188;55.644;37.772;2022-10-31T01:28:53;0.70;;;0.15;;
61308;SDS011;47188;55.644;37.772;2022-10-31T01:31:21;0.50;;;0.13;;
61308;SDS011;47188;55.644;37.772;2022-10-31T01:33:49;0.65;;;0.10;;
61308;SDS011;47188;55.644;37.772;2022-10-31T01:36:17;0.30;;;0.20;;
61308;SDS011;47188;55.644;37.772;2022-10-31T01:38:45;0.70;;;0.20;;
61308;SDS011;47188;55.644;37.772;2022-10-31T01:41:12;0.40;;;0.10;;
61308;SDS011;47188;55.644;37.772;2022-10-31T01:46:11;0.35;;;0.20;;
61308;SDS011;47188;55.644;37.772;2022-10-31T01:48:37;0.15;;;0.10;;
61308;SDS011;47188;55.644;37.772;2022-10-31T01:51:03;1.13;;;0.20;;
61308;SDS011;47188;55.644;37.772;2022-10-31T01:53:31;0.47;;;0.22;;
61308;SDS011;47188;55.644;37.772;2022-10-31T01:55:57;0.32;;;0.10;;
61308;SDS011;47188;55.644;37.772;2022-10-31T01:58:25;1.42;;;0.17;;
61308;SDS011;47188;55.644;37.772;2022-10-31T02:00:54;0.28;;;0.10;;
61308;SDS011;47188;55.644;37.772;2022-10-31T02:03:22;0.73;;;0.28;;
61308;SDS011;47188;55.644;37.772;2022-10-31T02:05:48;1.00;;;0.20;;
61308;SDS011;47188;55.644;37.772;2022-10-31T02:08:28;1.45;;;0.30;;
61308;SDS011;47188;55.644;37.772;2022-10-31T02:10:58;0.40;;;0.17;;
61308;SDS011;47188;55.644;37.772;2022-10-31T02:13:25;0.80;;;0.15;;
61308;SDS011;47188;55.644;37.772;2022-10-31T02:15:53;1.13;;;0.20;;
61308;SDS011;47188;55.644;37.772;2022-10-31T02:18:20;0.47;;;0.22;;
61308;SDS011;47188;55.644;37.772;2022-10-31T02:21:11;0.65;;;0.22;;
61308;SDS011;47188;55.644;37.772;2022-10-31T02:23:51;0.20;;;0.10;;
61308;SDS011;47188;55.644;37.772;2022-10-31T02:35:11;2.45;;;0.30;;
61308;SDS011;47188;55.644;37.772;2022-10-31T02:40:53;0.43;;;0.10;;
61308;SDS011;47188;55.644;37.772;2022-10-31T02:46:38;2.78;;;0.50;;
61308;SDS011;47188;55.644;37.772;2022-10-31T02:49:16;0.47;;;0.10;;
61308;SDS011;47188;55.644;37.772;2022-10-31T02:51:47;0.60;;;0.30;;
61308;SDS011;47188;55.644;37.772;2022-10-31T02:54:17;0.60;;;0.20;;
61308;SDS011;47188;55.644;37.772;2022-10-31T02:56:45;0.22;;;0.20;;
61308;SDS011;47188;55.644;37.772;2022-10-31T02:59:12;0.98;;;0.30;;
61308;SDS011;47188;55.644;37.772;2022-10-31T03:12:30;0.90;;;0.30;;
61308;SDS011;47188;55.644;37.772;2022-10-31T03:17:36;0.50;;;0.30;;
61308;SDS011;47188;55.644;37.772;2022-10-31T03:20:03;1.58;;;0.35;;
61308;SDS011;47188;55.644;37.772;2022-10-31T03:22:31;1.23;;;0.40;;
61308;SDS011;47188;55.644;37.772;2022-10-31T03:25:00;2.35;;;0.40;;
61308;SDS011;47188;55.644;37.772;2022-10-31T03:27:31;1.38;;;0.30;;
61308;SDS011;47188;55.644;37.772;2022-10-31T03:29:59;1.88;;;0.50;;
61308;SDS011;47188;55.644;37.772;2022-10-31T03:32:36;1.00;;;0.38;;
61308;SDS011;47188;55.644;37.772;2022-10-31T03:35:06;0.90;;;0.30;;
61308;SDS011;47188;55.644;37.772;2022-10-31T03:37:34;0.60;;;0.28;;
61308;SDS011;47188;55.644;37.772;2022-10-31T03:40:01;0.32;;;0.20;;
61308;SDS011;47188;55.644;37.772;2022-10-31T03:42:31;2.90;;;0.60;;
61308;SDS011;47188;55.644;37.772;2022-10-31T03:45:03;0.38;;;0.20;;
61308;SDS011;47188;55.644;37.772;2022-10-31T03:47:32;1.25;;;0.32;;
61308;SDS011;47188;55.644;37.772;2022-10-31T03:49:59;2.20;;;0.20;;
61308;SDS011;47188;55.644;37.772;2022-10-31T03:52:36;2.72;;;0.32;;
61308;SDS011;47188;55.644;37.772;2022-10-31T03:57:58;1.83;;;0.38;;
61308;SDS011;47188;55.644;37.772;2022-10-31T04:00:28;0.80;;;0.40;;
61308;SDS011;47188;55.644;37.772;2022-10-31T04:02:57;1.52;;;0.40;;
61308;SDS011;47188;55.644;37.772;2022-10-31T04:05:26;1.75;;;0.60;;
61308;SDS011;47188;55.644;37.772;2022-10-31T04:07:57;2.00;;;0.47;;
61308;SDS011;47188;55.644;37.772;2022-10-31T04:10:24;2.67;;;1.05;;
61308;SDS011;47188;55.644;37.772;2022-10-31T04:12:54;2.55;;;0.50;;
61308;SDS011;47188;55.644;37.772;2022-10-31T04:15:26;2.10;;;0.40;;
61308;SDS011;47188;55.644;37.772;2022-10-31T04:17:53;0.35;;;0.20;;
61308;SDS011;47188;55.644;37.772;2022-10-31T04:20:31;0.75;;;0.30;;
61308;SDS011;47188;55.644;37.772;2022-10-31T04:22:58;1.73;;;0.50;;
61308;SDS011;47188;55.644;37.772;2022-10-31T04:25:24;0.52;;;0.30;;
61308;SDS011;47188;55.644;37.772;2022-10-31T04:27:50;1.00;;;0.15;;
61308;SDS011;47188;55.644;37.772;2022-10-31T04:30:17;2.70;;;2.05;;
61308;SDS011;47188;55.644;37.772;2022-10-31T04:32:42;1.80;;;0.82;;
61308;SDS011;47188;55.644;37.772;2022-10-31T04:35:08;0.93;;;0.63;;
61308;SDS011;47188;55.644;37.772;2022-10-31T04:37:34;1.83;;;0.40;;
61308;SDS011;47188;55.644;37.772;2022-10-31T04:40:01;1.02;;;0.30;;
61308;SDS011;47188;55.644;37.772;2022-10-31T04:42:37;1.40;;;0.40;;
61308;SDS011;47188;55.644;37.772;2022-10-31T04:45:04;0.77;;;0.40;;
61308;SDS011;47188;55.644;37.772;2022-10-31T04:47:32;2.75;;;0.40;;
61308;SDS011;47188;55.644;37.772;2022-10-31T04:50:00;1.83;;;0.60;;
61308;SDS011;47188;55.644;37.772;2022-10-31T04:52:26;0.57;;;0.30;;
61308;SDS011;47188;55.644;37.772;2022-10-31T04:54:52;1.52;;;0.30;;
61308;SDS011;47188;55.644;37.772;2022-10-31T04:57:45;0.50;;;0.20;;
61308;SDS011;47188;55.644;37.772;2022-10-31T05:00:14;0.60;;;0.55;;
61308;SDS011;47188;55.644;37.772;2022-10-31T05:02:45;1.08;;;0.50;;
61308;SDS011;47188;55.644;37.772;2022-10-31T05:05:12;2.33;;;0.25;;
61308;SDS011;47188;55.644;37.772;2022-10-31T05:07:40;0.95;;;0.30;;
61308;SDS011;47188;55.644;37.772;2022-10-31T05:10:10;2.05;;;0.40;;
61308;SDS011;47188;55.644;37.772;2022-10-31T05:12:37;0.73;;;0.30;;
61308;SDS011;47188;55.644;37.772;2022-10-31T05:15:06;0.77;;;0.50;;
61308;SDS011;47188;55.644;37.772;2022-10-31T05:17:51;0.93;;;0.43;;
61308;SDS011;47188;55.644;37.772;2022-10-31T05:20:36;0.52;;;0.22;;
61308;SDS011;47188;55.644;37.772;2022-10-31T05:23:02;2.40;;;0.68;;
61308;SDS011;47188;55.644;37.772;2022-10-31T05:25:29;0.43;;;0.22;;
61308;SDS011;47188;55.644;37.772;2022-10-31T05:27:55;1.65;;;0.40;;
61308;SDS011;47188;55.644;37.772;2022-10-31T05:30:22;0.45;;;0.20;;
61308;SDS011;47188;55.644;37.772;2022-10-31T05:32:55;1.40;;;0.40;;
61308;SDS011;47188;55.644;37.772;2022-10-31T05:35:41;1.58;;;0.35;;
61308;SDS011;47188;55.644;37.772;2022-10-31T05:38:33;1.05;;;0.50;;
61308;SDS011;47188;55.644;37.772;2022-10-31T05:41:07;2.05;;;0.32;;
61308;SDS011;47188;55.644;37.772;2022-10-31T05:43:34;2.53;;;0.40;;
61308;SDS011;47188;55.644;37.772;2022-10-31T05:46:04;1.45;;;0.30;;
61308;SDS011;47188;55.644;37.772;2022-10-31T05:48:48;1.15;;;0.35;;
61308;SDS011;47188;55.644;37.772;2022-10-31T05:51:32;0.90;;;0.50;;
61308;SDS011;47188;55.644;37.772;2022-10-31T05:53:58;0.57;;;0.35;;
61308;SDS011;47188;55.644;37.772;2022-10-31T05:56:25;1.58;;;0.50;;
61308;SDS011;47188;55.644;37.772;2022-10-31T05:58:51;0.70;;;0.35;;
61308;SDS011;47188;55.644;37.772;2022-10-31T06:01:17;0.80;;;0.40;;
61308;SDS011;47188;55.644;37.772;2022-10-31T06:03:44;0.85;;;0.50;;
61308;SDS011;47188;55.644;37.772;2022-10-31T06:06:14;0.88;;;0.43;;
61308;SDS011;47188;55.644;37.772;2022-10-31T06:08:40;3.05;;;0.30;;
61308;SDS011;47188;55.644;37.772;2022-10-31T06:11:13;0.88;;;0.45;;
61308;SDS011;47188;55.644;37.772;2022-10-31T06:13:57;0.70;;;0.55;;
61308;SDS011;47188;55.644;37.772;2022-10-31T06:16:29;2.60;;;0.63;;
61308;SDS011;47188;55.644;37.772;2022-10-31T06:19:00;2.83;;;0.43;;
61308;SDS011;47188;55.644;37.772;2022-10-31T06:21:26;0.65;;;0.25;;
61308;SDS011;47188;55.644;37.772;2022-10-31T06:23:52;1.05;;;0.50;;
61308;SDS011;47188;55.644;37.772;2022-10-31T06:26:38;2.58;;;0.40;;
61308;SDS011;47188;55.644;37.772;2022-10-31T06:29:04;0.60;;;0.40;;
61308;SDS011;47188;55.644;37.772;2022-10-31T06:31:58;2.40;;;0.70;;
61308;SDS011;47188;55.644;37.772;2022-10-31T06:34:24;0.50;;;0.30;;
61308;SDS011;47188;55.644;37.772;2022-10-31T06:36:50;0.85;;;0.40;;
61308;SDS011;47188;55.644;37.772;2022-10-31T06:39:19;2.25;;;0.47;;
61308;SDS011;47188;55.644;37.772;2022-10-31T06:41:46;3.83;;;0.50;;
61308;SDS011;47188;55.644;37.772;2022-10-31T06:44:15;1.08;;;0.88;;
61308;SDS011;47188;55.644;37.772;2022-10-31T06:47:01;1.02;;;0.57;;
61308;SDS011;47188;55.644;37.772;2022-10-31T06:49:44;3.22;;;1.20;;
61308;SDS011;47188;55.644;37.772;2022-10-31T06:52:13;1.70;;;0.70;;
61308;SDS011;47188;55.644;37.772;2022-10-31T06:54:40;4.70;;;1.30;;
61308;SDS011;47188;55.644;37.772;2022-10-31T06:57:06;1.88;;;0.73;;
61308;SDS011;47188;55.644;37.772;2022-10-31T06:59:32;1.00;;;0.63;;
61308;SDS011;47188;55.644;37.772;2022-10-31T07:02:09;1.73;;;1.08;;
61308;SDS011;47188;55.644;37.772;2022-10-31T07:04:36;2.50;;;1.33;;
61308;SDS011;47188;55.644;37.772;2022-10-31T07:07:02;2.03;;;0.90;;
61308;SDS011;47188;55.644;37.772;2022-10-31T07:09:28;2.72;;;0.90;;
61308;SDS011;47188;55.644;37.772;2022-10-31T07:11:56;4.00;;;1.63;;
61308;SDS011;47188;55.644;37.772;2022-10-31T07:14:22;1.77;;;0.70;;
61308;SDS011;47188;55.644;37.772;2022-10-31T07:16:49;1.35;;;0.88;;
61308;SDS011;47188;55.644;37.772;2022-10-31T07:19:17;1.33;;;0.93;;
61308;SDS011;47188;55.644;37.772;2022-10-31T07:21:43;2.53;;;1.30;;
61308;SDS011;47188;55.644;37.772;2022-10-31T07:24:12;2.85;;;1.38;;
61308;SDS011;47188;55.644;37.772;2022-10-31T07:26:41;2.42;;;1.20;;
61308;SDS011;47188;55.644;37.772;2022-10-31T07:29:08;2.58;;;1.05;;
61308;SDS011;47188;55.644;37.772;2022-10-31T07:31:34;1.98;;;1.00;;
61308;SDS011;47188;55.644;37.772;2022-10-31T07:34:07;2.10;;;1.10;;
61308;SDS011;47188;55.644;37.772;2022-10-31T07:36:51;2.40;;;1.30;;
61308;SDS011;47188;55.644;37.772;2022-10-31T07:39:18;3.83;;;1.30;;
61308;SDS011;47188;55.644;37.772;2022-10-31T07:41:44;2.17;;;1.45;;
61308;SDS011;47188;55.644;37.772;2022-10-31T07:44:10;2.17;;;0.82;;
61308;SDS011;47188;55.644;37.772;2022-10-31T07:47:11;2.40;;;1.25;;
61308;SDS011;47188;55.644;37.772;2022-10-31T07:49:55;2.03;;;1.33;;
61308;SDS011;47188;55.644;37.772;2022-10-31T07:52:47;1.33;;;0.90;;
61308;SDS011;47188;55.644;37.772;2022-10-31T07:55:37;1.95;;;0.93;;
61308;SDS011;47188;55.644;37.772;2022-10-31T07:58:09;0.82;;;0.60;;
61308;SDS011;47188;55.644;37.772;2022-10-31T08:00:40;1.60;;;1.20;;
61308;SDS011;47188;55.644;37.772;2022-10-31T08:03:08;1.90;;;0.73;;
61308;SDS011;47188;55.644;37.772;2022-10-31T08:06:01;1.90;;;1.17;;
61308;SDS011;47188;55.644;37.772;2022-10-31T08:08:53;1.42;;;0.60;;
61308;SDS011;47188;55.644;37.772;2022-10-31T08:11:19;1.75;;;1.30;;
61308;SDS011;47188;55.644;37.772;2022-10-31T08:13:46;2.05;;;1.20;;
61308;SDS011;47188;55.644;37.772;2022-10-31T08:16:13;2.80;;;1.17;;
61308;SDS011;47188;55.644;37.772;2022-10-31T08:18:49;1.10;;;0.57;;
61308;SDS011;47188;55.644;37.772;2022-10-31T08:21:16;1.38;;;0.68;;
61308;SDS011;47188;55.644;37.772;2022-10-31T08:23:43;0.68;;;0.30;;
61308;SDS011;47188;55.644;37.772;2022-10-31T08:26:09;1.20;;;0.70;;
61308;SDS011;47188;55.644;37.772;2022-10-31T08:28:36;1.10;;;0.65;;
61308;SDS011;47188;55.644;37.772;2022-10-31T08:31:02;1.05;;;0.32;;
61308;SDS011;47188;55.644;37.772;2022-10-31T08:33:38;1.83;;;0.80;;
61308;SDS011;47188;55.644;37.772;2022-10-31T08:36:23;1.88;;;0.70;;
61308;SDS011;47188;55.644;37.772;2022-10-31T08:39:14;4.28;;;1.10;;
61308;SDS011;47188;55.644;37.772;2022-10-31T08:41:40;3.55;;;1.02;;
61308;SDS011;47188;55.644;37.772;2022-10-31T08:44:10;1.77;;;0.68;;
61308;SDS011;47188;55.644;37.772;2022-10-31T08:46:36;1.48;;;0.68;;
61308;SDS011;47188;55.644;37.772;2022-10-31T08:49:02;1.73;;;1.10;;
61308;SDS011;47188;55.644;37.772;2022-10-31T08:51:28;1.48;;;0.60;;
61308;SDS011;47188;55.644;37.772;2022-10-31T08:53:55;1.40;;;0.93;;
61308;SDS011;47188;55.644;37.772;2022-10-31T08:56:39;2.00;;;0.95;;
61308;SDS011;47188;55.644;37.772;2022-10-31T08:59:18;1.35;;;0.68;;
61308;SDS011;47188;55.644;37.772;2022-10-31T09:02:22;2.17;;;1.00;;
61308;SDS011;47188;55.644;37.772;2022-10-31T09:04:50;1.40;;;0.80;;
61308;SDS011;47188;55.644;37.772;2022-10-31T09:07:16;1.60;;;1.13;;
61308;SDS011;47188;55.644;37.772;2022-10-31T09:09:42;2.03;;;1.05;;
61308;SDS011;47188;55.644;37.772;2022-10-31T09:12:08;1.88;;;1.15;;
61308;SDS011;47188;55.644;37.772;2022-10-31T09:14:54;1.75;;;0.82;;
61308;SDS011;47188;55.644;37.772;2022-10-31T09:17:29;1.30;;;0.85;;
61308;SDS011;47188;55.644;37.772;2022-10-31T09:20:14;3.38;;;1.45;;
61308;SDS011;47188;55.644;37.772;2022-10-31T09:22:40;1.90;;;0.65;;
61308;SDS011;47188;55.644;37.772;2022-10-31T09:25:07;0.77;;;0.47;;
61308;SDS011;47188;55.644;37.772;2022-10-31T09:27:34;1.65;;;0.88;;
61308;SDS011;47188;55.644;37.772;2022-10-31T09:30:00;2.47;;;1.33;;
61308;SDS011;47188;55.644;37.772;2022-10-31T09:32:26;2.58;;;1.40;;
61308;SDS011;47188;55.644;37.772;2022-10-31T09:34:52;2.05;;;1.00;;
61308;SDS011;47188;55.644;37.772;2022-10-31T09:37:19;4.35;;;1.35;;
61308;SDS011;47188;55.644;37.772;2022-10-31T09:39:45;1.77;;;0.90;;
61308;SDS011;47188;55.644;37.772;2022-10-31T09:42:37;1.25;;;0.77;;
61308;SDS011;47188;55.644;37.772;2022-10-31T09:45:25;1.83;;;0.90;;
61308;SDS011;47188;55.644;37.772;2022-10-31T09:48:05;1.95;;;1.20;;
61308;SDS011;47188;55.644;37.772;2022-10-31T09:50:51;2.80;;;0.95;;
61308;SDS011;47188;55.644;37.772;2022-10-31T09:54:11;1.80;;;0.77;;
61308;SDS011;47188;55.644;37.772;2022-10-31T09:56:44;2.60;;;1.10;;
61308;SDS011;47188;55.644;37.772;2022-10-31T09:59:19;2.42;;;1.10;;
61308;SDS011;47188;55.644;37.772;2022-10-31T10:02:03;2.88;;;0.90;;
61308;SDS011;47188;55.644;37.772;2022-10-31T10:04:38;1.58;;;0.75;;
61308;SDS011;47188;55.644;37.772;2022-10-31T10:07:30;1.45;;;0.85;;
61308;SDS011;47188;55.644;37.772;2022-10-31T10:10:32;1.05;;;0.63;;
61308;SDS011;47188;55.644;37.772;2022-10-31T10:22:01;0.47;;;0.38;;
61308;SDS011;47188;55.644;37.772;2022-10-31T10:27:23;1.20;;;0.50;;
61308;SDS011;47188;55.644;37.772;2022-10-31T10:32:36;2.10;;;0.57;;
61308;SDS011;47188;55.644;37.772;2022-10-31T10:40:55;1.88;;;0.73;;
61308;SDS011;47188;55.644;37.772;2022-10-31T10:43:23;2.00;;;0.60;;
61308;SDS011;47188;55.644;37.772;2022-10-31T10:49:00;1.33;;;0.50;;
61308;SDS011;47188;55.644;37.772;2022-10-31T10:51:50;1.30;;;0.70;;
61308;SDS011;47188;55.644;37.772;2022-10-31T10:54:39;0.85;;;0.50;;
61308;SDS011;47188;55.644;37.772;2022-10-31T10:57:32;0.30;;;0.20;;
61308;SDS011;47188;55.644;37.772;2022-10-31T11:00:21;1.15;;;0.60;;
61308;SDS011;47188;55.644;37.772;2022-10-31T11:02:49;1.02;;;0.30;;
61308;SDS011;47188;55.644;37.772;2022-10-31T11:05:20;0.20;;;0.10;;
61308;SDS011;47188;55.644;37.772;2022-10-31T11:07:51;0.50;;;0.25;;
61308;SDS011;47188;55.644;37.772;2022-10-31T11:10:17;2.15;;;0.20;;
61308;SDS011;47188;55.644;37.772;2022-10-31T11:12:44;0.30;;;0.20;;
61308;SDS011;47188;55.644;37.772;2022-10-31T11:15:22;4.00;;;0.40;;
61308;SDS011;47188;55.644;37.772;2022-10-31T11:17:51;0.73;;;0.20;;
61308;SDS011;47188;55.644;37.772;2022-10-31T11:22:44;0.30;;;0.20;;
61308;SDS011;47188;55.644;37.772;2022-10-31T11:25:24;1.98;;;0.40;;
61308;SDS011;47188;55.644;37.772;2022-10-31T11:28:08;0.60;;;0.40;;
61308;SDS011;47188;55.644;37.772;2022-10-31T11:30:37;0.75;;;0.28;;
61308;SDS011;47188;55.644;37.772;2022-10-31T11:33:16;0.70;;;0.28;;
61308;SDS011;47188;55.644;37.772;2022-10-31T11:35:44;0.63;;;0.30;;
61308;SDS011;47188;55.644;37.772;2022-10-31T11:38:14;1.08;;;0.35;;
61308;SDS011;47188;55.644;37.772;2022-10-31T11:40:51;1.00;;;0.60;;
61308;SDS011;47188;55.644;37.772;2022-10-31T11:43:18;0.70;;;0.40;;
61308;SDS011;47188;55.644;37.772;2022-10-31T11:45:44;0.55;;;0.30;;
61308;SDS011;47188;55.644;37.772;2022-10-31T11:48:18;1.13;;;0.20;;
61308;SDS011;47188;55.644;37.772;2022-10-31T11:50:54;0.90;;;0.30;;
61308;SDS011;47188;55.644;37.772;2022-10-31T11:53:26;1.40;;;0.80;;
61308;SDS011;47188;55.644;37.772;2022-10-31T11:56:10;2.55;;;0.50;;
61308;SDS011;47188;55.644;37.772;2022-10-31T11:58:39;0.60;;;0.30;;
61308;SDS011;47188;55.644;37.772;2022-10-31T12:01:05;0.90;;;0.35;;
61308;SDS011;47188;55.644;37.772;2022-10-31T12:06:14;0.80;;;0.40;;
61308;SDS011;47188;55.644;37.772;2022-10-31T12:08:43;0.73;;;0.30;;
61308;SDS011;47188;55.644;37.772;2022-10-31T12:16:34;0.82;;;0.40;;
61308;SDS011;47188;55.644;37.772;2022-10-31T12:24:27;1.58;;;0.85;;
61308;SDS011;47188;55.644;37.772;2022-10-31T12:27:16;0.77;;;0.40;;
61308;SDS011;47188;55.644;37.772;2022-10-31T12:32:35;1.48;;;0.47;;
61308;SDS011;47188;55.644;37.772;2022-10-31T12:40:25;0.50;;;0.40;;
61308;SDS011;47188;55.644;37.772;2022-10-31T12:43:12;1.35;;;0.55;;
61308;SDS011;47188;55.644;37.772;2022-10-31T12:46:00;1.63;;;0.73;;
61308;SDS011;47188;55.644;37.772;2022-10-31T13:02:19;0.95;;;0.68;;
61308;SDS011;47188;55.644;37.772;2022-10-31T13:07:44;1.33;;;0.80;;
61308;SDS011;47188;55.644;37.772;2022-10-31T13:12:42;1.75;;;0.93;;
61308;SDS011;47188;55.644;37.772;2022-10-31T13:15:12;0.98;;;0.40;;
61308;SDS011;47188;55.644;37.772;2022-10-31T13:17:43;1.20;;;0.75;;
61308;SDS011;47188;55.644;37.772;2022-10-31T13:20:30;1.50;;;0.63;;
61308;SDS011;47188;55.644;37.772;2022-10-31T13:26:03;2.88;;;0.75;;
61308;SDS011;47188;55.644;37.772;2022-10-31T13:28:36;2.22;;;0.98;;
61308;SDS011;47188;55.644;37.772;2022-10-31T13:31:07;3.63;;;0.82;;
61308;SDS011;47188;55.644;37.772;2022-10-31T13:33:42;2.30;;;1.00;;
61308;SDS011;47188;55.644;37.772;2022-10-31T13:39:08;0.90;;;0.70;;
61308;SDS011;47188;55.644;37.772;2022-10-31T13:44:39;3.60;;;1.83;;
61308;SDS011;47188;55.644;37.772;2022-10-31T13:49:49;1.98;;;0.75;;
61308;SDS011;47188;55.644;37.772;2022-10-31T13:52:16;1.17;;;0.80;;
61308;SDS011;47188;55.644;37.772;2022-10-31T13:54:50;0.43;;;0.30;;
61308;SDS011;47188;55.644;37.772;2022-10-31T13:59:54;3.90;;;1.38;;
61308;SDS011;47188;55.644;37.772;2022-10-31T14:02:25;5.32;;;1.17;;
61308;SDS011;47188;55.644;37.772;2022-10-31T14:04:59;2.00;;;0.60;;
61308;SDS011;47188;55.644;37.772;2022-10-31T14:07:29;2.20;;;0.80;;
61308;SDS011;47188;55.644;37.772;2022-10-31T14:09:57;1.63;;;0.60;;
61308;SDS011;47188;55.644;37.772;2022-10-31T14:15:18;1.95;;;1.17;;
61308;SDS011;47188;55.644;37.772;2022-10-31T14:17:54;4.80;;;0.70;;
61308;SDS011;47188;55.644;37.772;2022-10-31T14:22:58;1.02;;;0.60;;
61308;SDS011;47188;55.644;37.772;2022-10-31T14:25:31;0.82;;;0.50;;
61308;SDS011;47188;55.644;37.772;2022-10-31T14:28:00;0.82;;;0.63;;
61308;SDS011;47188;55.644;37.772;2022-10-31T14:30:50;2.05;;;1.13;;
61308;SDS011;47188;55.644;37.772;2022-10-31T14:33:22;3.67;;;0.93;;
61308;SDS011;47188;55.644;37.772;2022-10-31T14:36:11;3.13;;;0.98;;
61308;SDS011;47188;55.644;37.772;2022-10-31T14:39:17;2.58;;;0.82;;
61308;SDS011;47188;55.644;37.772;2022-10-31T14:41:51;2.05;;;0.75;;
61308;SDS011;47188;55.644;37.772;2022-10-31T14:47:24;4.32;;;2.20;;
61308;SDS011;47188;55.644;37.772;2022-10-31T14:49:59;6.10;;;3.58;;
61308;SDS011;47188;55.644;37.772;2022-10-31T14:52:36;2.85;;;1.60;;
61308;SDS011;47188;55.644;37.772;2022-10-31T14:55:04;1.80;;;0.90;;
61308;SDS011;47188;55.644;37.772;2022-10-31T14:57:32;3.08;;;1.67;;
61308;SDS011;47188;55.644;37.772;2022-10-31T15:00:02;2.22;;;1.30;;
61308;SDS011;47188;55.644;37.772;2022-10-31T15:02:42;1.42;;;1.20;;
61308;SDS011;47188;55.644;37.772;2022-10-31T15:05:22;1.75;;;1.00;;
61308;SDS011;47188;55.644;37.772;2022-10-31T15:07:51;2.40;;;0.80;;
61308;SDS011;47188;55.644;37.772;2022-10-31T15:10:23;3.22;;;0.80;;
61308;SDS011;47188;55.644;37.772;2022-10-31T15:15:55;2.22;;;1.02;;
61308;SDS011;47188;55.644;37.772;2022-10-31T15:18:23;0.95;;;0.68;;
61308;SDS011;47188;55.644;37.772;2022-10-31T15:20:52;2.72;;;0.80;;
61308;SDS011;47188;55.644;37.772;2022-10-31T15:23:21;5.55;;;1.83;;
61308;SDS011;47188;55.644;37.772;2022-10-31T15:25:50;1.73;;;0.80;;
61308;SDS011;47188;55.644;37.772;2022-10-31T15:28:21;1.60;;;1.35;;
61308;SDS011;47188;55.644;37.772;2022-10-31T15:30:54;3.38;;;0.90;;
61308;SDS011;47188;55.644;37.772;2022-10-31T15:36:00;1.83;;;1.20;;
61308;SDS011;47188;55.644;37.772;2022-10-31T15:38:27;2.55;;;1.55;;
61308;SDS011;47188;55.644;37.772;2022-10-31T15:40:55;1.20;;;0.88;;
61308;SDS011;47188;55.644;37.772;2022-10-31T15:43:24;2.30;;;1.27;;
61308;SDS011;47188;55.644;37.772;2022-10-31T15:45:50;1.30;;;0.80;;
61308;SDS011;47188;55.644;37.772;2022-10-31T15:48:16;2.30;;;0.90;;
61308;SDS011;47188;55.644;37.772;2022-10-31T15:50:50;1.42;;;0.68;;
61308;SDS011;47188;55.644;37.772;2022-10-31T15:58:28;1.55;;;0.80;;
61308;SDS011;47188;55.644;37.772;2022-10-31T16:01:02;0.70;;;0.60;;
61308;SDS011;47188;55.644;37.772;2022-10-31T16:03:30;1.13;;;0.85;;
61308;SDS011;47188;55.644;37.772;2022-10-31T16:06:01;1.85;;;0.77;;
61308;SDS011;47188;55.644;37.772;2022-10-31T16:11:37;0.73;;;0.47;;
61308;SDS011;47188;55.644;37.772;2022-10-31T16:13:57;2.33;;;1.13;;
61308;SDS011;47188;55.644;37.772;2022-10-31T16:16:23;1.50;;;0.73;;
61308;SDS011;47188;55.644;37.772;2022-10-31T16:18:50;2.85;;;0.85;;
61308;SDS011;47188;55.644;37.772;2022-10-31T16:21:27;4.05;;;1.08;;
61308;SDS011;47188;55.644;37.772;2022-10-31T16:23:57;1.77;;;0.90;;
61308;SDS011;47188;55.644;37.772;2022-10-31T16:26:24;0.63;;;0.52;;
61308;SDS011;47188;55.644;37.772;2022-10-31T16:28:54;1.25;;;0.50;;
61308;SDS011;47188;55.644;37.772;2022-10-31T16:31:29;1.35;;;0.80;;
61308;SDS011;47188;55.644;37.772;2022-10-31T16:34:03;1.85;;;0.77;;
61308;SDS011;47188;55.644;37.772;2022-10-31T16:36:32;1.25;;;0.70;;
61308;SDS011;47188;55.644;37.772;2022-10-31T16:39:00;0.95;;;0.63;;
61308;SDS011;47188;55.644;37.772;2022-10-31T16:41:26;1.50;;;0.80;;
61308;SDS011;47188;55.644;37.772;2022-10-31T16:43:52;1.08;;;0.60;;
61308;SDS011;47188;55.644;37.772;2022-10-31T16:46:20;1.67;;;0.70;;
61308;SDS011;47188;55.644;37.772;2022-10-31T16:48:47;0.43;;;0.30;;
61308;SDS011;47188;55.644;37.772;2022-10-31T16:51:16;1.15;;;0.55;;
61308;SDS011;47188;55.644;37.772;2022-10-31T16:53:42;0.82;;;0.60;;
61308;SDS011;47188;55.644;37.772;2022-10-31T16:56:12;0.60;;;0.35;;
61308;SDS011;47188;55.644;37.772;2022-10-31T16:58:41;1.30;;;0.60;;
61308;SDS011;47188;55.644;37.772;2022-10-31T17:01:07;0.65;;;0.55;;
61308;SDS011;47188;55.644;37.772;2022-10-31T17:03:33;1.25;;;0.50;;
61308;SDS011;47188;55.644;37.772;2022-10-31T17:05:59;1.85;;;0.60;;
61308;SDS011;47188;55.644;37.772;2022-10-31T17:08:24;0.47;;;0.30;;
61308;SDS011;47188;55.644;37.772;2022-10-31T17:10:51;1.20;;;0.63;;
61308;SDS011;47188;55.644;37.772;2022-10-31T17:13:18;2.35;;;0.60;;
61308;SDS011;47188;55.644;37.772;2022-10-31T17:15:47;1.45;;;0.50;;